Terminal Aerodrome Forecast
Issued by NWS

Home | Current Version | Previous Version | Text Only | Print | Product List | Glossary On
Versions: 1 2 3 4 5 6 7 8 9 10 11 12 13
272
FTAK31 PAJN 071132
TAFASI
TAF
PASI 071132Z 0712/0812 10018G28KT 6SM -RA BR BKN050 OVC070
      WS020/11045KT
     FM071800 12015KT 6SM -RA BR BKN050 OVC070 WS020/14030KT
     FM072300 14008KT P6SM VCSH OVC050=

USA.gov is the U.S. government's official web portal to all federal, state and local government web resources and services.